Time;durP1;ratioP1;P1;durP2;ratioP2;P2;SDS_P1;SDS_P2;PMS_P1;PMS_P2;Temp;Humidity;BMP_temperature;BMP_pressure;BME280_temperature;BME280_humidity;BME280_pressure;Samples;Min_cycle;Max_cycle;Signal;HPM_P1;HPM_P2
2021/08/15 00:00:48;;;;;;;5.33;3.47;;;26.20;47.50;;;;;;5050075;28;20436;-83
2021/08/15 00:03:16;;;;;;;5.20;3.20;;;26.10;47.50;;;;;;5050996;28;20467;-83
2021/08/15 00:05:44;;;;;;;5.10;3.37;;;26.20;47.60;;;;;;5050895;28;20519;-82
2021/08/15 00:08:13;;;;;;;5.70;3.40;;;26.20;47.40;;;;;;5050036;28;20431;-83
2021/08/15 00:10:42;;;;;;;3.50;3.20;;;26.20;47.40;;;;;;5049973;28;20439;-83
2021/08/15 00:13:10;;;;;;;3.83;2.80;;;26.20;47.40;;;;;;5050567;28;20462;-83
2021/08/15 00:15:38;;;;;;;5.27;3.20;;;26.10;47.30;;;;;;5050098;28;20493;-82
2021/08/15 00:18:06;;;;;;;4.10;3.70;;;26.10;47.20;;;;;;5050298;28;20413;-83
2021/08/15 00:20:34;;;;;;;4.47;3.30;;;26.10;47.20;;;;;;5050391;28;20612;-82
2021/08/15 00:23:01;;;;;;;3.90;3.17;;;26.20;47.20;;;;;;5050445;28;20480;-83
2021/08/15 00:25:31;;;;;;;4.10;3.20;;;26.10;47.20;;;;;;5050507;28;20516;-82
2021/08/15 00:27:58;;;;;;;4.13;3.73;;;26.10;47.20;;;;;;5049845;28;20498;-80
2021/08/15 00:30:36;;;;;;;3.87;3.50;;;26.10;47.00;;;;;;5050240;28;20627;-83
2021/08/15 00:33:04;;;;;;;4.00;3.37;;;26.10;47.00;;;;;;5050270;28;20453;-83
2021/08/15 00:35:32;;;;;;;5.60;3.70;;;26.10;47.20;;;;;;5042481;28;20508;-81
2021/08/15 00:37:59;;;;;;;3.80;3.37;;;26.10;47.10;;;;;;5049721;28;20452;-82
2021/08/15 00:40:27;;;;;;;4.90;3.57;;;26.10;47.10;;;;;;5050880;28;20487;-83
2021/08/15 00:42:57;;;;;;;4.33;3.63;;;26.10;47.10;;;;;;5051695;28;20474;-82
2021/08/15 00:45:33;;;;;;;5.17;3.60;;;26.10;47.00;;;;;;5051791;28;20463;-83
2021/08/15 00:48:07;;;;;;;4.53;3.50;;;26.10;47.00;;;;;;5050363;28;20510;-82
2021/08/15 00:50:35;;;;;;;3.43;3.13;;;26.10;47.00;;;;;;5049885;28;20443;-82
2021/08/15 00:53:03;;;;;;;4.43;3.20;;;26.10;47.10;;;;;;5050087;28;20533;-82
2021/08/15 00:55:31;;;;;;;6.03;3.80;;;26.00;47.10;;;;;;5050195;28;20423;-82
2021/08/15 00:58:03;;;;;;;3.57;3.20;;;26.10;47.10;;;;;;5050063;28;20459;-81
2021/08/15 01:00:31;;;;;;;4.83;3.00;;;26.00;47.00;;;;;;5050236;28;20445;-80
2021/08/15 01:02:59;;;;;;;4.00;3.13;;;26.00;47.10;;;;;;5049854;28;20442;-82
2021/08/15 01:05:27;;;;;;;7.90;3.10;;;26.00;47.20;;;;;;5050594;28;20430;-82
2021/08/15 01:07:55;;;;;;;6.00;3.67;;;25.90;47.20;;;;;;5050148;28;20445;-82
2021/08/15 01:10:23;;;;;;;3.03;2.83;;;26.00;47.20;;;;;;5050533;28;20473;-82
2021/08/15 01:12:51;;;;;;;3.60;3.30;;;26.00;47.10;;;;;;5050058;28;20454;-82
2021/08/15 01:15:20;;;;;;;7.60;3.60;;;25.90;47.00;;;;;;5049830;28;20464;-82
2021/08/15 01:17:48;;;;;;;6.80;3.50;;;26.00;47.10;;;;;;5049873;28;20537;-82
2021/08/15 01:20:16;;;;;;;6.17;3.70;;;25.90;47.10;;;;;;5049828;28;20489;-82
2021/08/15 01:22:45;;;;;;;4.80;3.53;;;25.90;47.10;;;;;;5050111;28;20492;-82
2021/08/15 01:25:14;;;;;;;3.47;3.17;;;25.90;47.10;;;;;;5050053;28;20687;-82
2021/08/15 01:27:43;;;;;;;5.30;3.40;;;25.90;47.10;;;;;;5050057;28;20549;-82
2021/08/15 01:30:13;;;;;;;4.20;3.80;;;25.90;47.10;;;;;;5050413;28;20459;-82
2021/08/15 01:32:42;;;;;;;4.37;3.60;;;25.90;47.00;;;;;;5049707;28;20448;-82
2021/08/15 01:35:11;;;;;;;4.57;3.50;;;25.90;47.20;;;;;;5049396;28;20467;-82
2021/08/15 01:37:39;;;;;;;5.53;3.90;;;25.90;47.10;;;;;;5049668;28;20473;-82
2021/08/15 01:40:08;;;;;;;4.10;3.70;;;25.90;47.10;;;;;;5050420;28;20907;-82
2021/08/15 01:42:36;;;;;;;5.73;3.63;;;25.80;47.20;;;;;;5049206;28;20453;-81
2021/08/15 01:45:08;;;;;;;5.73;3.70;;;25.90;47.20;;;;;;5050594;28;20488;-82
2021/08/15 01:47:37;;;;;;;3.43;2.90;;;25.80;47.80;;;;;;5057452;28;20477;-77
2021/08/15 01:50:06;;;;;;;5.43;3.73;;;25.80;47.10;;;;;;5057046;28;20462;-82
2021/08/15 01:52:33;;;;;;;4.40;3.83;;;25.80;47.30;;;;;;5053139;28;20417;-83
2021/08/15 01:55:01;;;;;;;5.00;3.50;;;25.80;47.10;;;;;;5052804;28;20401;-81
2021/08/15 01:57:29;;;;;;;5.60;3.83;;;25.80;47.10;;;;;;5052115;28;20435;-83
2021/08/15 01:59:57;;;;;;;4.67;3.57;;;25.80;47.10;;;;;;5052576;28;20528;-82
2021/08/15 02:02:25;;;;;;;5.20;3.27;;;25.80;47.10;;;;;;5053048;28;20484;-82
2021/08/15 02:04:54;;;;;;;3.40;3.10;;;25.80;47.00;;;;;;5053024;28;20473;-82
2021/08/15 02:07:22;;;;;;;5.10;3.30;;;25.80;47.00;;;;;;5051230;28;20452;-80
2021/08/15 02:09:50;;;;;;;5.67;4.10;;;25.80;47.00;;;;;;5054831;28;20465;-82
2021/08/15 02:12:18;;;;;;;3.80;3.40;;;25.80;47.10;;;;;;5062770;28;20445;-82
2021/08/15 02:14:46;;;;;;;6.87;3.70;;;25.70;47.00;;;;;;5062604;28;20413;-82
2021/08/15 02:17:14;;;;;;;5.80;3.50;;;25.80;47.00;;;;;;5049593;28;20458;-82
2021/08/15 02:19:42;;;;;;;4.40;3.23;;;25.70;47.00;;;;;;5053307;28;20480;-82
2021/08/15 02:22:11;;;;;;;6.37;3.73;;;25.70;47.10;;;;;;5054386;28;20454;-82
2021/08/15 02:24:39;;;;;;;5.50;3.70;;;25.70;47.10;;;;;;5054345;28;20430;-82
2021/08/15 02:27:07;;;;;;;4.60;3.40;;;25.70;47.10;;;;;;5055935;28;20417;-82
2021/08/15 02:29:34;;;;;;;5.83;3.70;;;25.70;47.50;;;;;;5054675;28;20473;-82
2021/08/15 02:32:02;;;;;;;4.10;3.30;;;25.70;47.30;;;;;;5054544;28;20488;-82
2021/08/15 02:34:30;;;;;;;6.80;4.17;;;25.70;47.10;;;;;;5054519;28;20470;-82
2021/08/15 02:36:58;;;;;;;3.63;3.23;;;25.70;47.20;;;;;;5054906;28;20464;-82
2021/08/15 02:39:30;;;;;;;6.73;3.70;;;25.70;47.20;;;;;;5053612;28;20734;-82
2021/08/15 02:41:58;;;;;;;6.53;3.50;;;25.70;47.20;;;;;;5054726;28;20411;-82
2021/08/15 02:44:26;;;;;;;4.80;3.50;;;25.70;47.20;;;;;;5055737;28;20433;-82
2021/08/15 02:46:54;;;;;;;8.40;4.47;;;25.70;47.10;;;;;;5055239;28;20425;-82
2021/08/15 02:49:22;;;;;;;5.73;4.10;;;25.70;47.10;;;;;;5054878;28;20453;-82
2021/08/15 02:51:50;;;;;;;6.33;3.97;;;25.70;46.90;;;;;;5054898;28;20434;-82
2021/08/15 02:54:17;;;;;;;4.17;3.60;;;25.70;47.00;;;;;;5055675;28;20426;-82
2021/08/15 02:56:47;;;;;;;4.53;3.27;;;25.70;47.10;;;;;;5055863;28;20454;-82
2021/08/15 02:59:14;;;;;;;5.30;4.00;;;25.70;47.10;;;;;;5055687;28;20465;-82
2021/08/15 03:01:42;;;;;;;3.57;3.17;;;25.70;47.00;;;;;;5055058;28;20425;-82
2021/08/15 03:04:10;;;;;;;3.60;3.17;;;25.70;47.30;;;;;;5054338;28;20438;-82
2021/08/15 03:06:41;;;;;;;5.50;3.80;;;25.70;47.10;;;;;;5056970;28;20401;-82
2021/08/15 03:09:09;;;;;;;4.00;3.30;;;25.70;47.10;;;;;;5055069;28;20467;-82
2021/08/15 03:11:37;;;;;;;5.53;3.43;;;25.70;46.90;;;;;;5056452;28;20473;-82
2021/08/15 03:14:06;;;;;;;7.23;3.60;;;25.70;47.00;;;;;;5056187;28;20488;-82
2021/08/15 03:16:34;;;;;;;6.23;4.33;;;25.70;47.10;;;;;;5055508;28;20444;-82
2021/08/15 03:19:01;;;;;;;4.73;3.93;;;25.70;47.60;;;;;;5055787;28;20458;-82
2021/08/15 03:21:31;;;;;;;4.03;3.63;;;25.70;47.00;;;;;;5056060;28;20444;-82
2021/08/15 03:23:59;;;;;;;6.40;3.67;;;25.70;47.10;;;;;;5055214;28;20445;-82
2021/08/15 03:26:26;;;;;;;4.87;3.70;;;25.70;47.10;;;;;;5054693;28;20458;-82
2021/08/15 03:28:54;;;;;;;5.80;3.53;;;25.70;47.00;;;;;;5054863;28;20498;-82
2021/08/15 03:31:23;;;;;;;6.07;3.80;;;25.60;47.00;;;;;;5055866;28;21139;-82
2021/08/15 03:33:51;;;;;;;5.47;3.63;;;25.70;47.10;;;;;;5055745;28;20471;-82
2021/08/15 03:36:19;;;;;;;4.90;3.63;;;25.70;47.00;;;;;;5053904;28;20445;-82
2021/08/15 03:38:47;;;;;;;3.07;2.80;;;25.70;47.00;;;;;;5050021;28;20467;-82
2021/08/15 03:41:15;;;;;;;4.40;3.17;;;25.70;47.00;;;;;;5050776;28;20446;-82
2021/08/15 03:43:43;;;;;;;4.47;3.60;;;25.70;47.00;;;;;;5050759;28;20441;-82
2021/08/15 03:46:11;;;;;;;5.40;3.33;;;25.70;46.80;;;;;;5051906;28;20402;-82
2021/08/15 03:48:40;;;;;;;5.13;3.50;;;25.70;46.90;;;;;;5052406;28;20526;-82
2021/08/15 03:51:08;;;;;;;8.90;3.17;;;25.70;46.70;;;;;;5055027;28;20402;-82
2021/08/15 03:53:36;;;;;;;5.60;3.30;;;25.70;46.80;;;;;;5057004;28;20540;-82
2021/08/15 03:56:04;;;;;;;5.70;3.77;;;25.70;46.70;;;;;;5054675;28;20538;-82
2021/08/15 03:58:32;;;;;;;3.67;3.23;;;25.70;46.70;;;;;;5053706;28;20458;-82
2021/08/15 04:00:59;;;;;;;4.90;3.00;;;25.70;46.70;;;;;;5051731;28;20456;-82
2021/08/15 04:03:27;;;;;;;4.93;3.37;;;25.70;46.60;;;;;;5052088;28;20425;-82
2021/08/15 04:05:59;;;;;;;3.67;3.37;;;25.60;46.70;;;;;;5056245;28;20446;-82
2021/08/15 04:08:27;;;;;;;3.57;3.27;;;25.60;46.70;;;;;;5057757;28;20500;-82
2021/08/15 04:10:55;;;;;;;6.53;3.10;;;25.60;46.50;;;;;;5074645;28;20484;-82
2021/08/15 04:13:23;;;;;;;4.33;3.80;;;25.70;46.80;;;;;;5068532;28;20469;-82
2021/08/15 04:15:51;;;;;;;5.00;3.70;;;25.70;46.70;;;;;;5053883;28;21157;-82
2021/08/15 04:18:19;;;;;;;7.03;4.17;;;25.60;46.80;;;;;;5053887;28;20481;-82
2021/08/15 04:20:46;;;;;;;4.03;3.63;;;25.60;46.80;;;;;;5054662;28;20446;-82
2021/08/15 04:23:23;;;;;;;5.27;3.53;;;25.60;46.80;;;;;;5053874;28;20457;-83
2021/08/15 04:25:51;;;;;;;5.50;3.67;;;25.70;46.80;;;;;;5052171;28;20430;-83
2021/08/15 04:28:21;;;;;;;4.00;3.60;;;25.70;46.70;;;;;;5052859;28;20482;-83
2021/08/15 04:30:49;;;;;;;4.77;3.73;;;25.70;46.70;;;;;;5055781;28;20402;-80
2021/08/15 04:33:18;;;;;;;4.40;3.90;;;25.70;46.80;;;;;;5057259;28;20442;-81
2021/08/15 04:35:47;;;;;;;5.57;3.70;;;25.70;46.70;;;;;;5057572;28;20477;-80
2021/08/15 04:38:14;;;;;;;5.13;3.67;;;25.70;46.80;;;;;;5050272;28;20486;-83
2021/08/15 04:40:44;;;;;;;4.00;3.60;;;25.70;46.70;;;;;;5049772;28;20445;-83
2021/08/15 04:43:11;;;;;;;6.07;3.50;;;25.70;46.80;;;;;;5049983;28;20470;-82
2021/08/15 04:45:39;;;;;;;4.40;3.57;;;25.70;46.60;;;;;;5049806;28;20469;-83
2021/08/15 04:48:07;;;;;;;5.33;3.70;;;25.70;46.80;;;;;;5048711;28;20470;-83
2021/08/15 04:50:35;;;;;;;4.13;3.43;;;25.70;46.70;;;;;;5049302;28;20544;-83
2021/08/15 04:53:03;;;;;;;4.57;3.63;;;25.70;46.70;;;;;;5050419;28;20458;-83
2021/08/15 04:55:31;;;;;;;6.30;4.00;;;25.70;46.60;;;;;;5049479;28;20508;-82
2021/08/15 04:58:00;;;;;;;6.70;3.90;;;25.70;46.60;;;;;;5049254;28;20410;-80
2021/08/15 05:00:28;;;;;;;3.83;3.37;;;25.70;46.70;;;;;;5050143;28;20417;-82
2021/08/15 05:02:56;;;;;;;7.90;4.30;;;25.70;46.80;;;;;;5059185;28;20386;-78
2021/08/15 05:05:24;;;;;;;7.30;4.17;;;25.70;46.80;;;;;;5056861;28;20529;-83
2021/08/15 05:07:52;;;;;;;4.77;3.40;;;25.70;46.60;;;;;;5050293;28;20446;-82
2021/08/15 05:10:21;;;;;;;5.53;4.40;;;25.70;46.80;;;;;;5049734;28;20472;-79
2021/08/15 05:12:49;;;;;;;5.13;3.70;;;25.70;46.70;;;;;;5050274;28;20442;-83
2021/08/15 05:15:18;;;;;;;3.87;3.57;;;25.70;47.40;;;;;;5050768;28;20417;-80
2021/08/15 05:17:46;;;;;;;5.50;3.60;;;25.70;46.80;;;;;;5049987;28;20424;-82
2021/08/15 05:20:14;;;;;;;4.80;3.73;;;25.70;47.00;;;;;;5050161;28;20441;-83
2021/08/15 05:22:48;;;;;;;7.10;3.87;;;25.70;46.70;;;;;;5050862;28;20417;-82
2021/08/15 05:25:16;;;;;;;4.63;4.20;;;25.70;46.80;;;;;;5065962;28;20673;-82
2021/08/15 05:27:44;;;;;;;6.67;3.57;;;25.70;46.80;;;;;;5053324;28;20433;-82
2021/08/15 05:30:12;;;;;;;5.20;3.70;;;25.70;46.90;;;;;;5053605;28;20526;-81
2021/08/15 05:32:42;;;;;;;8.83;4.60;;;25.70;46.90;;;;;;5053388;28;20441;-82
2021/08/15 05:35:10;;;;;;;6.20;4.13;;;25.70;46.90;;;;;;5053729;28;20512;-83
2021/08/15 05:37:39;;;;;;;5.10;4.10;;;25.70;47.10;;;;;;5052962;28;20811;-82
2021/08/15 05:40:08;;;;;;;6.00;4.10;;;25.80;47.00;;;;;;5053317;28;20439;-82
2021/08/15 05:42:36;;;;;;;4.47;3.93;;;25.80;46.90;;;;;;5053595;28;21120;-82
2021/08/15 05:45:04;;;;;;;4.47;3.90;;;25.80;47.00;;;;;;5053636;28;20534;-83
2021/08/15 05:47:31;;;;;;;6.90;3.77;;;25.80;46.90;;;;;;5053915;28;20510;-82
2021/08/15 05:50:01;;;;;;;4.43;3.90;;;25.80;46.90;;;;;;5053054;28;20456;-83
2021/08/15 05:52:28;;;;;;;4.40;3.83;;;25.80;47.10;;;;;;5053555;28;20523;-83
2021/08/15 05:54:56;;;;;;;4.53;4.10;;;25.70;46.90;;;;;;5053568;28;20445;-83
2021/08/15 05:57:24;;;;;;;5.30;4.20;;;25.70;47.10;;;;;;5053909;28;20596;-82
2021/08/15 05:59:52;;;;;;;6.87;4.27;;;25.80;47.00;;;;;;5053909;28;20494;-83
2021/08/15 06:02:20;;;;;;;7.23;4.20;;;25.80;47.00;;;;;;5053590;28;20726;-83
2021/08/15 06:04:48;;;;;;;4.40;3.67;;;25.80;46.90;;;;;;5054092;28;20420;-83
2021/08/15 06:07:17;;;;;;;5.57;4.27;;;25.80;47.00;;;;;;5053891;28;20508;-82
2021/08/15 06:09:45;;;;;;;4.30;3.80;;;25.80;46.90;;;;;;5052377;28;20562;-82
2021/08/15 06:12:12;;;;;;;4.53;3.50;;;25.80;47.10;;;;;;5053961;28;20443;-82
2021/08/15 06:14:40;;;;;;;7.10;4.07;;;25.90;47.00;;;;;;5054627;28;20444;-82
2021/08/15 06:17:08;;;;;;;4.07;3.67;;;25.90;47.00;;;;;;5053901;28;20760;-83
2021/08/15 06:19:36;;;;;;;4.17;3.77;;;25.90;46.90;;;;;;5049685;28;20565;-83
2021/08/15 06:22:04;;;;;;;5.13;4.50;;;25.90;46.90;;;;;;5052803;28;20433;-82
2021/08/15 06:24:33;;;;;;;5.13;4.30;;;26.00;46.80;;;;;;5053478;28;20481;-83
2021/08/15 06:27:02;;;;;;;5.00;4.30;;;26.00;46.70;;;;;;5053276;28;20472;-83
2021/08/15 06:29:30;;;;;;;6.83;4.13;;;26.00;46.80;;;;;;5052925;28;20471;-83
2021/08/15 06:31:58;;;;;;;5.03;3.63;;;26.00;46.70;;;;;;5053623;28;20500;-83
2021/08/15 06:34:26;;;;;;;4.70;3.90;;;26.10;46.70;;;;;;5050807;28;20470;-83
2021/08/15 06:36:53;;;;;;;5.70;4.00;;;26.10;46.80;;;;;;5046575;28;20445;-83
2021/08/15 06:39:21;;;;;;;4.10;3.73;;;26.10;46.80;;;;;;5043903;28;20524;-83
2021/08/15 06:41:50;;;;;;;4.40;3.87;;;26.10;46.90;;;;;;5053036;28;20442;-83
2021/08/15 06:44:18;;;;;;;6.00;3.87;;;26.20;47.00;;;;;;5052114;28;20449;-83
2021/08/15 06:46:46;;;;;;;4.30;4.00;;;26.20;46.90;;;;;;5052787;28;20443;-83
2021/08/15 06:49:14;;;;;;;4.17;3.77;;;26.20;46.90;;;;;;5043515;28;20519;-82
2021/08/15 06:51:44;;;;;;;4.47;3.80;;;26.30;47.00;;;;;;5038341;28;20493;-82
2021/08/15 06:54:12;;;;;;;5.00;3.93;;;26.30;46.90;;;;;;5033527;28;20409;-82
2021/08/15 06:56:41;;;;;;;3.77;3.47;;;26.40;46.80;;;;;;5043186;28;20507;-82
2021/08/15 06:59:11;;;;;;;4.20;3.80;;;26.50;46.80;;;;;;5045243;28;20459;-82
2021/08/15 07:01:38;;;;;;;5.37;3.43;;;26.60;46.60;;;;;;5042476;28;20502;-82
2021/08/15 07:04:07;;;;;;;3.80;3.50;;;26.60;46.60;;;;;;5040016;28;20428;-82
2021/08/15 07:06:39;;;;;;;4.17;3.87;;;26.70;46.40;;;;;;5042890;28;20880;-82
2021/08/15 07:09:06;;;;;;;3.83;3.43;;;26.80;46.50;;;;;;5037244;28;20459;-82
2021/08/15 07:11:34;;;;;;;3.60;3.30;;;26.90;46.40;;;;;;5032455;28;20477;-82
2021/08/15 07:14:02;;;;;;;5.50;3.90;;;27.00;46.70;;;;;;5032751;28;21018;-82
2021/08/15 07:16:31;;;;;;;3.60;3.30;;;27.00;46.50;;;;;;5032568;28;20939;-83
2021/08/15 07:18:59;;;;;;;5.70;4.50;;;27.10;46.50;;;;;;5037002;28;20467;-82
2021/08/15 07:21:27;;;;;;;7.30;5.10;;;25.90;50.00;;;;;;5040211;28;20451;-82
2021/08/15 07:23:55;;;;;;;18.07;10.97;;;25.40;53.60;;;;;;5042293;28;20797;-82
2021/08/15 07:26:23;;;;;;;11.10;6.37;;;24.80;55.90;;;;;;5045063;28;20496;-80
2021/08/15 07:28:50;;;;;;;13.93;7.67;;;24.20;56.90;;;;;;5040482;28;20480;-82
2021/08/15 07:31:18;;;;;;;9.67;5.80;;;24.20;57.90;;;;;;5053283;28;20452;-79
2021/08/15 07:33:48;;;;;;;8.00;5.13;;;23.80;58.30;;;;;;5052819;28;20496;-80
2021/08/15 07:36:15;;;;;;;8.27;5.20;;;24.10;59.20;;;;;;5037854;28;20441;-80
2021/08/15 07:38:43;;;;;;;7.97;5.50;;;24.30;59.50;;;;;;5049105;28;20568;-80
2021/08/15 07:41:11;;;;;;;7.67;5.27;;;23.90;58.80;;;;;;5044765;28;20481;-80
2021/08/15 07:43:39;;;;;;;5.70;4.80;;;23.80;59.40;;;;;;5045865;28;20425;-80
2021/08/15 07:46:08;;;;;;;9.60;4.83;;;24.30;59.20;;;;;;5059983;28;20484;-80
2021/08/15 07:48:35;;;;;;;10.10;5.00;;;24.70;59.40;;;;;;5049529;28;20477;-80
2021/08/15 07:51:05;;;;;;;6.43;4.10;;;24.60;58.50;;;;;;5046026;28;20474;-80
2021/08/15 07:53:32;;;;;;;9.83;4.40;;;24.60;58.80;;;;;;5050279;28;20537;-80
2021/08/15 07:56:00;;;;;;;6.00;4.13;;;24.30;59.20;;;;;;5057959;28;20454;-80
2021/08/15 07:58:28;;;;;;;6.00;4.10;;;24.30;59.70;;;;;;5061254;28;20498;-80
2021/08/15 08:00:58;;;;;;;7.30;4.40;;;24.60;59.50;;;;;;5050357;28;20461;-82
2021/08/15 08:03:26;;;;;;;6.43;4.60;;;24.60;58.80;;;;;;5048963;28;20421;-81
2021/08/15 08:05:54;;;;;;;8.60;5.40;;;24.70;59.10;;;;;;5043739;28;20780;-81
2021/08/15 08:08:23;;;;;;;8.50;4.70;;;25.40;58.40;;;;;;5050191;28;20498;-80
2021/08/15 08:10:53;;;;;;;7.70;4.20;;;24.80;58.20;;;;;;5051891;28;20535;-80
2021/08/15 08:13:22;;;;;;;7.90;4.50;;;24.70;59.00;;;;;;5060095;28;20423;-79
2021/08/15 08:15:49;;;;;;;11.23;4.70;;;24.80;59.40;;;;;;5056176;28;20505;-79
2021/08/15 08:18:17;;;;;;;8.50;4.40;;;25.00;58.20;;;;;;5043717;28;20460;-81
2021/08/15 08:20:45;;;;;;;6.80;4.20;;;25.00;58.20;;;;;;5056167;28;20485;-79
2021/08/15 08:23:14;;;;;;;7.77;5.50;;;25.40;57.90;;;;;;5060937;28;20440;-78
2021/08/15 08:25:45;;;;;;;7.93;4.90;;;25.10;58.50;;;;;;5055066;28;20457;-81
2021/08/15 08:28:13;;;;;;;13.63;4.87;;;24.70;58.30;;;;;;5047463;28;20439;-78
2021/08/15 08:30:41;;;;;;;6.60;4.30;;;24.80;59.10;;;;;;5047254;28;20477;-79
2021/08/15 08:33:12;;;;;;;10.13;4.10;;;25.20;58.90;;;;;;5053004;28;20501;-79
2021/08/15 08:35:40;;;;;;;7.77;4.20;;;25.50;58.20;;;;;;5062322;28;20434;-80
2021/08/15 08:38:08;;;;;;;7.43;3.90;;;26.00;57.30;;;;;;5077374;28;20416;-80
2021/08/15 08:40:36;;;;;;;6.20;4.00;;;26.50;56.40;;;;;;5058304;28;20471;-81
2021/08/15 08:43:05;;;;;;;7.10;4.30;;;26.20;56.00;;;;;;5068473;28;20503;-81
2021/08/15 08:45:35;;;;;;;5.13;3.93;;;26.20;56.00;;;;;;5073132;28;20448;-80
2021/08/15 08:48:05;;;;;;;4.33;3.73;;;26.10;56.10;;;;;;5067861;28;20499;-80
2021/08/15 08:50:33;;;;;;;5.20;3.90;;;26.10;56.30;;;;;;5076933;28;20461;-81
2021/08/15 08:53:01;;;;;;;8.47;4.00;;;25.70;56.60;;;;;;5083378;28;20498;-81
2021/08/15 08:55:29;;;;;;;8.73;4.10;;;25.70;56.40;;;;;;5066796;28;20915;-82
2021/08/15 08:57:57;;;;;;;5.90;3.93;;;25.80;56.80;;;;;;5071496;28;20421;-81
2021/08/15 09:00:26;;;;;;;6.57;4.03;;;25.70;57.50;;;;;;5075877;28;20466;-78
2021/08/15 09:02:56;;;;;;;7.63;4.20;;;26.00;56.60;;;;;;5077956;28;20453;-79
2021/08/15 09:05:32;;;;;;;6.40;4.40;;;26.20;56.80;;;;;;5075699;28;20439;-81
2021/08/15 09:08:04;;;;;;;5.00;3.60;;;26.70;55.90;;;;;;5074762;28;20412;-83
2021/08/15 09:10:33;;;;;;;7.10;4.13;;;27.10;54.10;;;;;;5078270;28;20451;-80
2021/08/15 09:13:02;;;;;;;5.53;3.87;;;26.70;53.40;;;;;;5075213;28;20448;-81
2021/08/15 09:15:31;;;;;;;7.50;4.57;;;27.00;54.00;;;;;;5079837;28;20531;-80
2021/08/15 09:17:59;;;;;;;6.13;4.43;;;26.90;52.50;;;;;;5074961;28;20453;-80
2021/08/15 09:20:38;;;;;;;8.07;4.10;;;26.90;53.60;;;;;;5080979;28;20424;-82
2021/08/15 09:23:19;;;;;;;6.77;4.07;;;26.70;52.70;;;;;;5072405;28;20436;-83
2021/08/15 09:25:46;;;;;;;12.10;4.80;;;26.60;52.00;;;;;;5074797;28;20503;-82
2021/08/15 09:28:14;;;;;;;9.43;4.50;;;26.60;52.50;;;;;;5070669;28;20440;-88
2021/08/15 09:30:44;;;;;;;9.97;5.57;;;26.40;51.80;;;;;;5069697;28;20446;-81
2021/08/15 09:33:17;;;;;;;6.00;4.40;;;26.80;52.30;;;;;;5070637;28;20501;-82
2021/08/15 09:35:45;;;;;;;7.20;4.80;;;26.60;52.40;;;;;;5072970;28;20424;-83
2021/08/15 09:38:14;;;;;;;9.50;4.80;;;27.00;51.90;;;;;;5070361;28;20448;-80
2021/08/15 09:40:43;;;;;;;10.13;5.40;;;26.90;52.20;;;;;;5074196;28;20456;-80
2021/08/15 09:43:12;;;;;;;8.23;5.37;;;27.10;51.20;;;;;;5071431;28;20487;-79
2021/08/15 09:45:44;;;;;;;10.47;5.87;;;27.50;52.20;;;;;;5086943;28;20453;-83
2021/08/15 09:48:20;;;;;;;10.87;5.40;;;27.50;51.10;;;;;;5074063;28;20469;-80
2021/08/15 09:51:09;;;;;;;5.87;4.23;;;27.20;51.20;;;;;;5069119;28;20437;-80
2021/08/15 09:53:38;;;;;;;6.93;4.40;;;27.60;50.90;;;;;;5077159;28;20757;-80
2021/08/15 09:56:06;;;;;;;9.43;5.30;;;27.70;50.00;;;;;;5074192;28;20825;-80
2021/08/15 09:58:34;;;;;;;8.97;5.30;;;27.90;49.90;;;;;;5073907;28;20498;-80
2021/08/15 10:01:05;;;;;;;9.27;5.53;;;27.90;49.70;;;;;;5071548;28;20408;-81
2021/08/15 10:03:34;;;;;;;8.67;5.40;;;28.00;49.20;;;;;;5073926;28;20515;-81
2021/08/15 10:06:02;;;;;;;6.57;5.10;;;27.80;49.40;;;;;;5070447;28;20522;-79
2021/08/15 10:08:30;;;;;;;7.40;5.30;;;27.90;50.70;;;;;;5067929;28;20699;-80
2021/08/15 10:10:58;;;;;;;9.40;5.00;;;28.00;49.20;;;;;;5069634;28;20485;-80
2021/08/15 10:13:26;;;;;;;6.20;4.10;;;28.20;49.60;;;;;;5077838;28;20464;-81
2021/08/15 10:16:00;;;;;;;8.37;4.97;;;28.20;50.00;;;;;;5066505;28;20474;-81
2021/08/15 10:18:30;;;;;;;9.83;4.83;;;28.80;50.10;;;;;;5067585;28;20451;-82
2021/08/15 10:21:02;;;;;;;6.77;4.40;;;28.20;49.50;;;;;;5069623;28;20927;-79
2021/08/15 10:23:38;;;;;;;6.33;4.10;;;28.50;49.60;;;;;;5070370;28;20464;-79
2021/08/15 10:26:40;;;;;;;8.00;4.53;;;29.20;48.50;;;;;;5075087;28;20473;-80
2021/08/15 10:29:41;;;;;;;9.40;5.27;;;29.80;47.30;;;;;;5072365;28;20464;-79
2021/08/15 10:32:16;;;;;;;6.70;3.80;;;29.90;45.40;;;;;;5071036;28;20467;-80
2021/08/15 10:35:16;;;;;;;7.73;4.90;;;30.00;45.50;;;;;;5073782;28;20453;-83
2021/08/15 10:37:45;;;;;;;7.20;4.80;;;30.00;46.10;;;;;;5073932;28;20425;-82
2021/08/15 10:40:49;;;;;;;11.50;4.90;;;30.10;46.40;;;;;;5070922;28;20524;-86
2021/08/15 10:43:37;;;;;;;6.50;5.10;;;30.20;46.50;;;;;;5071532;28;20443;-80
2021/08/15 10:46:08;;;;;;;7.37;4.50;;;30.60;46.40;;;;;;5069951;28;20434;-80
2021/08/15 10:48:51;;;;;;;7.50;4.33;;;30.50;45.20;;;;;;5072945;28;20496;-81
2021/08/15 10:51:48;;;;;;;6.73;4.70;;;30.20;45.70;;;;;;5070607;28;20437;-82
2021/08/15 10:55:06;;;;;;;8.27;4.40;;;29.70;47.40;;;;;;5078747;28;20450;-81
2021/08/15 10:57:44;;;;;;;5.90;4.70;;;29.90;47.00;;;;;;5063712;28;20450;-80
2021/08/15 11:00:55;;;;;;;7.23;4.20;;;30.20;46.00;;;;;;5084855;28;20509;-83
2021/08/15 11:03:36;;;;;;;7.33;4.00;;;30.30;46.80;;;;;;5072485;28;20442;-80
2021/08/15 11:06:05;;;;;;;5.27;4.20;;;30.40;45.90;;;;;;5086463;28;20475;-82
2021/08/15 11:08:53;;;;;;;6.83;4.43;;;30.30;46.80;;;;;;5073291;28;20465;-82
2021/08/15 11:11:25;;;;;;;6.50;3.70;;;30.50;46.00;;;;;;5074992;28;20521;-83
2021/08/15 11:14:26;;;;;;;9.33;3.90;;;30.80;46.20;;;;;;5074709;28;20526;-83
2021/08/15 11:16:56;;;;;;;4.90;3.77;;;31.00;44.80;;;;;;5074471;28;20433;-82
2021/08/15 11:19:31;;;;;;;6.23;3.87;;;31.00;44.10;;;;;;5073773;28;21030;-80
2021/08/15 11:22:10;;;;;;;3.90;3.50;;;31.10;44.10;;;;;;5074436;28;20472;-80
2021/08/15 11:24:39;;;;;;;3.73;3.43;;;31.20;43.90;;;;;;5074975;28;20760;-81
2021/08/15 11:27:07;;;;;;;4.03;3.23;;;31.40;43.70;;;;;;5073153;28;20442;-81
2021/08/15 11:29:38;;;;;;;5.20;3.87;;;31.40;43.50;;;;;;5075160;28;20458;-81
2021/08/15 11:32:11;;;;;;;5.53;3.80;;;31.50;42.90;;;;;;5078009;28;20422;-87
2021/08/15 11:34:39;;;;;;;5.33;3.73;;;31.40;43.80;;;;;;5076777;28;20449;-81
2021/08/15 11:37:08;;;;;;;9.87;3.90;;;31.60;43.30;;;;;;5076838;28;20449;-87
2021/08/15 11:39:38;;;;;;;3.47;3.17;;;31.80;43.50;;;;;;5076413;28;20670;-81
2021/08/15 11:42:15;;;;;;;5.17;3.40;;;31.50;43.20;;;;;;5074237;28;20426;-83
2021/08/15 11:44:56;;;;;;;10.20;4.53;;;31.40;43.70;;;;;;5073086;28;20542;-83
2021/08/15 11:47:27;;;;;;;4.40;4.00;;;31.50;44.20;;;;;;5065028;28;20834;-81
2021/08/15 11:49:56;;;;;;;6.87;4.00;;;31.30;43.70;;;;;;5053957;28;20482;-81
2021/08/15 11:52:25;;;;;;;9.60;4.20;;;31.40;44.30;;;;;;5053579;28;20466;-81
2021/08/15 11:54:54;;;;;;;8.63;4.37;;;31.30;44.10;;;;;;5054103;28;20458;-81
2021/08/15 11:57:22;;;;;;;8.20;4.13;;;31.10;44.30;;;;;;5054033;28;20485;-81
2021/08/15 12:00:04;;;;;;;4.10;3.70;;;31.30;44.30;;;;;;5052662;28;20881;-84
2021/08/15 12:02:32;;;;;;;8.23;4.93;;;31.50;43.90;;;;;;5053148;28;20443;-81
2021/08/15 12:05:00;;;;;;;9.20;5.63;;;31.50;42.70;;;;;;5054387;28;20470;-82
2021/08/15 12:07:28;;;;;;;4.73;3.90;;;31.10;43.20;;;;;;5052857;28;20473;-80
2021/08/15 12:10:25;;;;;;;3.87;3.57;;;31.10;43.30;;;;;;5052303;28;20569;-82
2021/08/15 12:13:24;;;;;;;5.17;4.60;;;31.30;43.10;;;;;;5053175;28;20470;-82
2021/08/15 12:15:55;;;;;;;7.00;4.30;;;31.40;43.20;;;;;;5058972;28;20418;-81
2021/08/15 12:18:30;;;;;;;4.70;4.20;;;31.40;43.10;;;;;;5057604;28;20473;-80
2021/08/15 12:20:59;;;;;;;14.60;4.60;;;31.30;43.70;;;;;;5056006;28;20430;-81
2021/08/15 12:23:27;;;;;;;4.13;3.80;;;31.60;43.60;;;;;;5070353;28;20416;-81
2021/08/15 12:26:06;;;;;;;7.60;4.50;;;31.60;43.70;;;;;;5053857;28;20466;-83
2021/08/15 12:28:34;;;;;;;4.47;4.07;;;31.40;43.60;;;;;;5059891;28;20481;-81
2021/08/15 12:31:20;;;;;;;9.00;4.77;;;31.10;44.30;;;;;;5072422;28;20418;-80
2021/08/15 12:33:48;;;;;;;7.40;4.27;;;31.40;43.40;;;;;;5059408;28;20477;-80
2021/08/15 12:36:17;;;;;;;7.80;4.57;;;31.60;42.60;;;;;;5070271;28;20516;-83
2021/08/15 12:38:45;;;;;;;6.07;4.60;;;31.70;43.10;;;;;;5070771;28;20545;-79
2021/08/15 12:41:29;;;;;;;7.00;4.47;;;31.70;42.30;;;;;;5054438;28;20518;-80
2021/08/15 12:44:07;;;;;;;6.60;4.13;;;31.90;42.70;;;;;;5068816;28;20512;-83
2021/08/15 12:46:36;;;;;;;6.97;3.77;;;31.80;43.00;;;;;;5072786;28;20434;-80
2021/08/15 12:49:22;;;;;;;8.13;5.50;;;31.40;43.00;;;;;;5072438;28;20476;-79
2021/08/15 12:51:50;;;;;;;4.13;3.73;;;31.50;43.10;;;;;;5072526;28;20436;-82
2021/08/15 12:54:25;;;;;;;6.73;4.20;;;31.30;43.60;;;;;;5072243;28;20472;-80
2021/08/15 12:56:53;;;;;;;5.60;3.80;;;31.10;42.90;;;;;;5072846;28;20950;-79
2021/08/15 12:59:21;;;;;;;4.73;4.13;;;31.20;44.10;;;;;;5072786;28;20444;-81
2021/08/15 13:01:50;;;;;;;4.97;3.77;;;31.30;43.30;;;;;;5073552;28;20469;-80